Time;durP1;ratioP1;P1;durP2;ratioP2;P2;SDS_P1;SDS_P2;PMS_P1;PMS_P2;Temp;Humidity;BMP_temperature;BMP_pressure;BME280_temperature;BME280_humidity;BME280_pressure;Samples;Min_cycle;Max_cycle;Signal;HPM_P1;HPM_P2
2022/08/15 04:05:20;;;;;;;12.43;8.60;;;;;;;22.35;58.05;99641.19;5605815;31;80510;-56
2022/08/15 04:08:27;;;;;;;12.23;8.40;;;;;;;22.35;58.05;99641.19;5583803;31;34494;-57
2022/08/15 04:11:50;;;;;;;9.75;7.43;;;;;;;21.87;59.06;99649.28;5583916;32;33599;-57
2022/08/15 04:14:54;;;;;;;9.48;8.30;;;;;;;21.79;59.44;99643.75;5583739;31;33471;-57
2022/08/15 04:17:57;;;;;;;11.85;8.25;;;;;;;21.79;59.60;99635.56;5583811;31;33605;-57
2022/08/15 04:21:23;;;;;;;10.02;8.57;;;;;;;21.79;59.63;99640.25;5583630;31;33094;-57
2022/08/15 04:24:25;;;;;;;11.23;8.68;;;;;;;21.86;59.40;99643.06;5599189;31;33373;-57
2022/08/15 04:27:30;;;;;;;10.50;8.38;;;;;;;21.91;59.42;99644.66;5602947;31;33893;-57
2022/08/15 04:30:36;;;;;;;12.05;9.23;;;;;;;21.93;59.62;99643.13;5603369;31;34404;-57
2022/08/15 04:33:39;;;;;;;10.13;8.85;;;;;;;22.02;59.43;99649.06;5603355;31;33262;-57
2022/08/15 04:37:03;;;;;;;15.93;8.43;;;;;;;22.13;58.96;99645.66;5603397;31;34395;-57
2022/08/15 04:40:14;;;;;;;11.95;8.68;;;;;;;22.21;58.68;99642.63;5603353;31;33265;-57
2022/08/15 04:43:38;;;;;;;9.23;8.07;;;;;;;22.23;58.66;99632.12;5603207;31;33533;-57
2022/08/15 04:46:41;;;;;;;12.15;8.20;;;;;;;22.18;59.11;99653.50;5602937;31;33251;-57
2022/08/15 04:49:44;;;;;;;9.07;7.45;;;;;;;22.26;59.06;99652.44;5603496;31;33373;-57
2022/08/15 04:52:54;;;;;;;12.15;8.48;;;;;;;22.45;58.59;99644.00;5603115;31;33180;-57
2022/08/15 04:55:59;;;;;;;10.25;8.68;;;;;;;22.68;57.64;99643.00;5603255;31;33465;-57
2022/08/15 04:59:04;;;;;;;13.45;8.73;;;;;;;22.75;57.18;99638.38;5603254;31;33182;-57
2022/08/15 05:02:12;;;;;;;14.40;7.97;;;;;;;22.74;57.00;99636.78;5603048;31;33314;-57
2022/08/15 05:05:40;;;;;;;12.27;7.85;;;;;;;22.75;56.94;99632.12;5603299;31;33371;-57
2022/08/15 05:08:44;;;;;;;10.30;8.07;;;;;;;22.74;57.02;99633.28;5602784;31;33524;-57
2022/08/15 05:11:47;;;;;;;11.50;7.70;;;;;;;22.83;57.14;99632.97;5602872;31;33548;-57
2022/08/15 05:15:03;;;;;;;10.98;8.68;;;;;;;22.89;56.87;99628.69;5597021;31;34620;-57
2022/08/15 05:18:08;;;;;;;11.87;8.03;;;;;;;22.98;56.70;99629.97;5590072;31;34220;-57
2022/08/15 05:21:18;;;;;;;9.57;7.57;;;;;;;22.96;56.76;99632.28;5585254;31;33454;-57
2022/08/15 05:24:41;;;;;;;28.52;9.20;;;;;;;23.14;56.63;99626.13;5568905;32;33340;-57
2022/08/15 05:27:44;;;;;;;10.57;8.20;;;;;;;23.28;56.50;99623.47;5569586;31;34168;-57
2022/08/15 05:30:49;;;;;;;12.13;8.40;;;;;;;23.37;56.33;99618.41;5569611;31;34102;-57
2022/08/15 05:34:03;;;;;;;12.73;8.55;;;;;;;23.58;56.07;99625.16;5569643;31;34381;-57
2022/08/15 05:37:05;;;;;;;14.87;8.25;;;;;;;23.72;55.57;99627.94;5569584;31;32082;-57
2022/08/15 05:40:09;;;;;;;15.43;8.20;;;;;;;23.92;55.17;99626.41;5569206;31;33438;-57
2022/08/15 05:43:35;;;;;;;15.55;10.05;;;;;;;24.03;55.00;99631.12;5567939;32;33343;-57
2022/08/15 05:47:16;;;;;;;10.57;8.27;;;;;;;24.24;54.45;99630.34;5569064;31;34306;-57
2022/08/15 05:50:37;;;;;;;17.33;8.85;;;;;;;24.28;54.68;99626.47;5569574;31;33317;-57
2022/08/15 05:54:10;;;;;;;13.50;8.30;;;;;;;24.25;54.92;99629.19;5569353;31;34185;-57
2022/08/15 05:57:28;;;;;;;12.63;8.23;;;;;;;24.21;55.54;99636.63;5568884;31;34227;-57
2022/08/15 06:00:36;;;;;;;17.62;9.00;;;;;;;24.20;55.83;99635.81;5568778;31;33311;-57
2022/08/15 06:03:42;;;;;;;17.87;9.48;;;;;;;24.27;55.58;99638.59;5568778;32;33666;-57
2022/08/15 06:06:47;;;;;;;12.82;8.60;;;;;;;24.22;54.98;99632.72;5569209;31;33467;-57
2022/08/15 06:09:59;;;;;;;13.93;8.25;;;;;;;24.19;55.28;99630.75;5569073;31;33453;-57
2022/08/15 06:13:40;;;;;;;13.05;8.57;;;;;;;24.29;55.23;99632.72;5569104;31;33189;-57
2022/08/15 06:16:50;;;;;;;10.68;7.72;;;;;;;24.31;55.25;99636.63;5554155;31;33405;-57
2022/08/15 06:20:00;;;;;;;12.40;8.57;;;;;;;24.29;55.30;99638.19;5569310;31;34223;-57
2022/08/15 06:23:15;;;;;;;10.70;8.13;;;;;;;24.32;55.79;99638.19;5565833;31;34554;-57
2022/08/15 06:26:38;;;;;;;13.30;8.90;;;;;;;24.37;55.66;99635.06;5548948;32;33300;-58
2022/08/15 06:30:00;;;;;;;12.70;8.18;;;;;;;24.41;55.01;99645.28;5549804;32;33387;-57
2022/08/15 06:33:17;;;;;;;12.75;8.05;;;;;;;24.50;55.27;99646.44;5564368;32;34119;-57
2022/08/15 06:36:30;;;;;;;16.20;8.60;;;;;;;24.62;55.56;99634.28;5549549;32;33447;-57
2022/08/15 06:39:46;;;;;;;12.98;8.82;;;;;;;24.71;54.34;99642.13;5561241;32;33358;-57
2022/08/15 06:42:59;;;;;;;17.08;8.15;;;;;;;24.84;53.03;99641.31;5549693;31;34361;-57
2022/08/15 06:46:06;;;;;;;15.05;8.63;;;;;;;25.06;52.37;99647.50;5564599;31;32808;-57
2022/08/15 06:49:31;;;;;;;10.88;9.00;;;;;;;25.19;52.25;99642.41;5559102;31;34296;-57
2022/08/15 06:52:39;;;;;;;12.32;8.85;;;;;;;25.37;51.91;99638.84;5558441;32;33175;-57
2022/08/15 06:55:53;;;;;;;11.80;8.93;;;;;;;25.44;51.51;99644.28;5567032;31;33276;-57
2022/08/15 06:59:31;;;;;;;11.25;8.70;;;;;;;25.59;51.45;99643.03;5561108;31;33525;-57
2022/08/15 07:02:52;;;;;;;9.77;8.68;;;;;;;25.74;51.12;99641.00;5568518;31;34293;-57
2022/08/15 07:05:57;;;;;;;13.40;8.45;;;;;;;25.75;51.22;99640.59;5569079;32;33725;-57
2022/08/15 07:09:17;;;;;;;12.90;8.65;;;;;;;25.88;51.10;99645.66;5568387;31;34334;-58
2022/08/15 07:12:35;;;;;;;13.07;8.82;;;;;;;25.95;50.73;99643.63;5568034;31;33361;-57
2022/08/15 07:15:51;;;;;;;14.85;8.82;;;;;;;25.99;50.60;99638.13;5562426;31;34165;-57
2022/08/15 07:18:59;;;;;;;12.98;9.43;;;;;;;26.07;50.69;99638.88;5549825;31;33469;-58
2022/08/15 07:22:04;;;;;;;22.95;9.52;;;;;;;26.19;50.80;99638.38;5550903;32;32903;-57
2022/08/15 07:25:16;;;;;;;13.80;9.55;;;;;;;26.46;50.69;99644.06;5582623;31;33489;-58
2022/08/15 07:28:25;;;;;;;15.75;9.15;;;;;;;26.50;50.10;99642.09;5562317;31;34233;-58
2022/08/15 07:31:34;;;;;;;14.65;9.05;;;;;;;26.53;50.14;99637.75;5569219;31;33311;-58
2022/08/15 07:35:05;;;;;;;12.18;9.27;;;;;;;26.64;49.92;99636.44;5548880;32;33583;-58
2022/08/15 07:38:15;;;;;;;28.25;10.15;;;;;;;26.78;49.33;99641.03;5573066;31;33638;-57
2022/08/15 07:41:30;;;;;;;11.02;8.93;;;;;;;26.74;49.83;99634.00;5556089;32;33628;-58
2022/08/15 07:44:35;;;;;;;14.00;8.85;;;;;;;26.71;49.97;99632.84;5553664;32;34322;-58
2022/08/15 07:47:39;;;;;;;12.98;9.00;;;;;;;26.74;49.19;99634.78;5557269;32;34280;-58
2022/08/15 07:50:47;;;;;;;13.20;8.82;;;;;;;26.69;49.62;99638.78;5555404;32;34380;-58
2022/08/15 07:54:04;;;;;;;20.45;9.10;;;;;;;26.71;49.47;99635.59;5558975;32;32985;-58
2022/08/15 07:57:21;;;;;;;11.40;8.50;;;;;;;26.73;49.11;99637.97;5557389;31;34668;-58
2022/08/15 08:00:52;;;;;;;10.45;8.20;;;;;;;26.78;49.45;99646.53;5553841;32;34527;-57
2022/08/15 08:04:23;;;;;;;14.15;8.70;;;;;;;26.74;48.31;99643.03;5566227;32;33267;-57
2022/08/15 08:07:30;;;;;;;19.87;8.90;;;;;;;26.77;48.93;99642.22;5560434;31;34427;-58
2022/08/15 08:10:50;;;;;;;13.68;8.20;;;;;;;26.82;48.83;99632.75;5567956;31;33260;-57
2022/08/15 08:14:11;;;;;;;21.55;9.30;;;;;;;26.83;48.90;99651.59;5563455;32;34494;-57
2022/08/15 08:17:46;;;;;;;12.63;8.40;;;;;;;26.87;48.87;99646.84;5559621;31;33564;-57
2022/08/15 08:20:56;;;;;;;13.27;8.32;;;;;;;26.87;48.70;99648.81;5587202;31;34477;-57
2022/08/15 08:24:08;;;;;;;11.02;8.55;;;;;;;26.86;48.56;99647.25;5587324;31;33172;-58
2022/08/15 08:27:41;;;;;;;36.97;9.63;;;;;;;26.88;48.42;99642.13;5587270;31;34135;-57
2022/08/15 08:31:10;;;;;;;15.88;8.50;;;;;;;26.91;48.44;99642.06;5587153;31;33179;-58
2022/08/15 08:34:54;;;;;;;18.08;8.25;;;;;;;26.96;48.29;99648.34;5587599;31;33685;-57
2022/08/15 08:38:18;;;;;;;19.40;8.40;;;;;;;27.08;48.24;99647.78;5587406;31;34427;-57
2022/08/15 08:41:58;;;;;;;15.27;8.63;;;;;;;27.18;47.35;99638.66;5577584;31;33782;-58
2022/08/15 08:45:10;;;;;;;9.27;7.72;;;;;;;27.27;46.51;99636.19;5567246;32;34069;-58
2022/08/15 08:48:31;;;;;;;15.00;7.78;;;;;;;27.30;46.38;99632.63;5567387;32;33740;-57
2022/08/15 08:51:59;;;;;;;8.98;7.28;;;;;;;27.41;44.84;99635.25;5569940;32;34329;-57
2022/08/15 08:55:22;;;;;;;18.85;8.07;;;;;;;27.47;43.87;99635.56;5569689;32;34267;-57
2022/08/15 08:58:53;;;;;;;11.85;8.10;;;;;;;27.62;45.33;99637.72;5569608;32;33686;-58
2022/08/15 09:02:09;;;;;;;10.40;8.13;;;;;;;27.71;44.70;99626.19;5570257;32;33291;-57
2022/08/15 09:05:49;;;;;;;15.38;8.32;;;;;;;27.64;44.83;99629.81;5570098;32;34285;-58
2022/08/15 09:09:06;;;;;;;21.52;8.73;;;;;;;27.73;45.19;99623.81;5569678;32;33705;-58
2022/08/15 09:15:42;;;;;;;14.15;7.97;;;;;;;27.87;44.04;99609.06;5570379;32;34392;-58
2022/08/15 09:19:07;;;;;;;9.70;7.53;;;;;;;27.98;44.33;99617.97;5566747;32;34344;-58
2022/08/15 09:22:13;;;;;;;8.75;7.68;;;;;;;28.10;43.72;99609.09;5553353;32;33572;-58
2022/08/15 09:25:16;;;;;;;11.43;7.18;;;;;;;28.11;43.01;99609.88;5558572;32;33710;-57
2022/08/15 09:28:28;;;;;;;16.67;8.00;;;;;;;28.16;44.27;99601.16;5562573;32;34222;-57
2022/08/15 09:31:38;;;;;;;11.25;7.10;;;;;;;28.22;43.00;99605.00;5567476;32;33803;-58
2022/08/15 09:35:17;;;;;;;16.15;7.85;;;;;;;28.30;42.32;99598.16;5555540;32;33606;-58
2022/08/15 09:38:51;;;;;;;14.80;7.70;;;;;;;28.39;41.75;99594.88;5552613;32;34361;-57
2022/08/15 09:42:19;;;;;;;9.63;7.22;;;;;;;28.45;41.72;99595.97;5563273;32;33645;-58
2022/08/15 09:46:03;;;;;;;12.48;7.22;;;;;;;28.47;41.99;99595.53;5563433;32;33617;-58
2022/08/15 09:49:55;;;;;;;11.05;7.32;;;;;;;28.60;42.99;99585.44;5557764;32;34476;-58
2022/08/15 09:53:19;;;;;;;10.50;6.70;;;;;;;28.60;41.79;99587.44;5550605;32;33906;-58
2022/08/15 09:56:25;;;;;;;8.80;6.12;;;;;;;28.59;40.74;99586.66;5550017;32;33749;-58
2022/08/15 09:59:35;;;;;;;8.00;6.22;;;;;;;28.56;39.54;99582.75;5549970;32;33293;-57
2022/08/15 10:02:48;;;;;;;7.20;6.50;;;;;;;28.73;38.42;99580.09;5555165;32;33765;-58
2022/08/15 10:06:06;;;;;;;9.02;6.90;;;;;;;28.83;37.06;99579.09;5566811;32;33632;-58
2022/08/15 10:09:28;;;;;;;7.12;6.43;;;;;;;28.91;37.56;99572.25;5555619;32;33642;-57
2022/08/15 10:12:35;;;;;;;9.15;6.62;;;;;;;28.89;37.55;99558.09;5564955;32;34333;-58
2022/08/15 10:15:43;;;;;;;8.75;6.43;;;;;;;28.84;38.15;99564.13;5556267;32;33566;-58
2022/08/15 10:18:45;;;;;;;8.85;6.62;;;;;;;28.97;37.27;99562.28;5567900;32;34449;-58
2022/08/15 10:21:48;;;;;;;8.50;5.95;;;;;;;29.01;37.88;99568.53;5569466;32;34172;-58
2022/08/15 10:25:17;;;;;;;16.05;6.05;;;;;;;29.10;37.56;99553.38;5553162;32;33645;-58
2022/08/15 10:28:24;;;;;;;10.18;6.85;;;;;;;29.07;36.60;99549.47;5549233;32;33748;-58
2022/08/15 10:31:53;;;;;;;8.07;6.12;;;;;;;29.12;38.14;99553.75;5560139;32;33658;-58
2022/08/15 10:35:35;;;;;;;7.68;6.57;;;;;;;29.18;38.71;99549.28;5549766;32;33253;-58
2022/08/15 10:38:44;;;;;;;12.45;6.68;;;;;;;29.14;37.96;99554.06;5549792;32;34293;-58
2022/08/15 10:42:25;;;;;;;8.27;6.78;;;;;;;29.19;37.75;99542.53;5565455;32;33610;-57
2022/08/15 10:45:41;;;;;;;7.40;6.35;;;;;;;29.17;37.86;99547.69;5566728;32;33615;-58
2022/08/15 10:49:09;;;;;;;10.90;6.90;;;;;;;29.19;37.30;99540.56;5557178;32;34391;-58
2022/08/15 10:52:49;;;;;;;11.82;6.85;;;;;;;29.20;38.91;99535.81;5553250;32;33428;-58
2022/08/15 10:56:22;;;;;;;7.87;5.90;;;;;;;29.21;37.93;99531.88;5566640;31;33649;-58
2022/08/15 10:59:52;;;;;;;10.10;5.78;;;;;;;29.27;37.11;99530.13;5564714;32;33704;-58
2022/08/15 11:03:02;;;;;;;7.55;5.68;;;;;;;29.39;36.16;99523.19;5570288;31;34010;-57
2022/08/15 11:06:20;;;;;;;6.95;5.80;;;;;;;29.36;35.47;99521.28;5572067;31;33923;-58
2022/08/15 11:09:27;;;;;;;6.57;5.65;;;;;;;29.38;36.93;99527.94;5560831;32;33743;-58
2022/08/15 11:12:36;;;;;;;7.65;5.50;;;;;;;29.31;35.51;99525.34;5548871;32;33628;-58
2022/08/15 11:16:06;;;;;;;6.78;4.85;;;;;;;29.36;34.23;99519.28;5556443;32;33772;-58
2022/08/15 11:19:36;;;;;;;8.57;5.47;;;;;;;29.47;33.71;99521.78;5549248;32;33728;-58
2022/08/15 11:23:00;;;;;;;8.00;5.75;;;;;;;29.55;33.76;99514.16;5549821;32;34290;-58
2022/08/15 11:26:06;;;;;;;6.68;5.32;;;;;;;29.61;34.47;99509.69;5566903;32;33832;-58
2022/08/15 11:29:24;;;;;;;7.75;5.78;;;;;;;29.68;34.53;99506.75;5569070;32;33852;-58
2022/08/15 11:32:31;;;;;;;7.40;6.07;;;;;;;29.71;34.11;99509.44;5568027;32;33676;-57
2022/08/15 11:35:36;;;;;;;11.02;5.72;;;;;;;29.81;34.19;99504.84;5553003;32;33649;-58
2022/08/15 11:38:46;;;;;;;6.95;6.25;;;;;;;29.78;34.42;99502.19;5557452;32;33634;-58
2022/08/15 11:42:17;;;;;;;8.07;6.00;;;;;;;29.89;34.67;99500.69;5549151;32;33918;-58
2022/08/15 11:45:26;;;;;;;7.43;5.80;;;;;;;29.94;33.05;99507.69;5550076;32;33699;-58
2022/08/15 11:48:33;;;;;;;9.65;5.78;;;;;;;29.96;32.74;99505.25;5549332;32;33973;-58
2022/08/15 11:51:43;;;;;;;6.50;5.85;;;;;;;29.96;32.47;99505.25;5556086;32;33627;-58
2022/08/15 11:55:15;;;;;;;6.70;5.72;;;;;;;29.99;32.75;99501.62;5555176;32;34404;-58
2022/08/15 11:58:35;;;;;;;9.40;5.57;;;;;;;29.94;32.81;99496.66;5551539;32;33737;-58
2022/08/15 12:02:29;;;;;;;7.47;5.35;;;;;;;29.83;33.45;99483.06;5557716;32;33674;-58
2022/08/15 12:05:55;;;;;;;9.57;5.80;;;;;;;29.99;33.14;99479.53;5555470;32;33665;-58
2022/08/15 12:09:24;;;;;;;7.32;4.87;;;;;;;30.12;32.48;99487.88;5551815;32;33665;-58
2022/08/15 12:12:49;;;;;;;6.57;4.62;;;;;;;30.27;32.03;99489.09;5550016;32;33695;-58
2022/08/15 12:15:51;;;;;;;7.28;5.05;;;;;;;30.37;32.18;99470.66;5548980;32;33700;-58
2022/08/15 12:18:58;;;;;;;9.55;5.60;;;;;;;30.27;31.62;99471.75;5556515;32;34458;-58
2022/08/15 12:22:29;;;;;;;8.73;5.03;;;;;;;30.30;32.20;99476.38;5553355;32;34319;-58
2022/08/15 12:25:55;;;;;;;6.90;4.80;;;;;;;30.28;31.94;99476.03;5560236;32;33725;-58
2022/08/15 12:28:57;;;;;;;7.28;5.50;;;;;;;30.45;30.74;99471.22;5555094;32;33750;-58
2022/08/15 12:32:04;;;;;;;11.15;4.75;;;;;;;30.47;30.37;99474.34;5567254;32;33342;-58
2022/08/15 12:35:30;;;;;;;6.03;4.95;;;;;;;30.50;29.98;99467.91;5550468;32;34294;-58
2022/08/15 12:38:53;;;;;;;5.78;4.75;;;;;;;30.42;31.96;99465.34;5550556;32;33666;-58
2022/08/15 12:41:56;;;;;;;6.93;5.12;;;;;;;30.31;31.39;99467.66;5552718;32;34262;-58
2022/08/15 12:45:18;;;;;;;6.07;4.95;;;;;;;30.26;31.70;99462.66;5553336;32;34480;-58
2022/08/15 12:48:24;;;;;;;7.95;5.28;;;;;;;30.28;32.10;99451.16;5550817;32;34113;-58
2022/08/15 12:51:36;;;;;;;8.35;4.93;;;;;;;30.26;31.83;99445.28;5550920;32;34485;-58
2022/08/15 12:54:47;;;;;;;10.88;6.07;;;;;;;30.25;32.37;99444.50;5550501;32;33633;-58
2022/08/15 12:57:50;;;;;;;6.75;5.47;;;;;;;30.24;32.21;99440.22;5555620;32;33727;-58
2022/08/15 13:00:57;;;;;;;7.43;5.47;;;;;;;30.42;32.68;99436.94;5570092;32;33993;-58
2022/08/15 13:04:15;;;;;;;6.93;5.00;;;;;;;30.47;33.07;99443.94;5555274;32;34445;-58
2022/08/15 13:07:37;;;;;;;6.95;5.20;;;;;;;30.49;32.25;99444.25;5550151;32;33644;-57
2022/08/15 13:11:00;;;;;;;6.60;5.15;;;;;;;30.56;32.79;99446.81;5563264;32;33704;-58
2022/08/15 13:14:13;;;;;;;8.30;5.22;;;;;;;30.38;33.88;99439.81;5567580;32;33675;-58
2022/08/15 13:17:17;;;;;;;7.82;5.10;;;;;;;30.44;32.47;99442.81;5553862;32;33634;-58
2022/08/15 13:24:05;;;;;;;5.60;4.60;;;;;;;30.52;32.15;99440.59;5550175;32;34415;-58
2022/08/15 13:27:18;;;;;;;7.68;5.03;;;;;;;30.54;31.17;99438.19;5551008;32;34332;-58
2022/08/15 13:30:21;;;;;;;6.93;5.43;;;;;;;30.46;31.29;99418.25;5560097;31;32888;-58
2022/08/15 13:33:37;;;;;;;7.93;4.75;;;;;;;30.44;31.33;99415.16;5556211;32;34225;-58
2022/08/15 13:36:47;;;;;;;6.57;5.30;;;;;;;30.38;31.78;99414.91;5557711;32;33650;-58
2022/08/15 13:39:56;;;;;;;9.57;5.53;;;;;;;30.30;32.19;99408.06;5559944;32;34253;-58
2022/08/15 13:43:01;;;;;;;7.53;5.40;;;;;;;30.43;31.88;99408.84;5550561;32;33785;-58
2022/08/15 13:46:16;;;;;;;7.15;5.15;;;;;;;30.51;31.94;99403.12;5552183;32;33734;-58
2022/08/15 13:49:32;;;;;;;7.45;5.30;;;;;;;30.45;31.73;99400.09;5560296;32;33779;-58
2022/08/15 13:52:37;;;;;;;12.82;5.40;;;;;;;30.63;31.79;99396.84;5567579;32;33882;-58
2022/08/15 13:55:52;;;;;;;6.80;5.05;;;;;;;30.53;31.51;99395.12;5565192;32;34412;-58
2022/08/15 13:58:54;;;;;;;9.30;4.80;;;;;;;30.41;32.07;99397.44;5569922;32;34344;-58
2022/08/15 14:02:03;;;;;;;5.47;3.95;;;;;;;30.42;31.87;99396.22;5557815;32;33745;-58
2022/08/15 14:05:26;;;;;;;5.53;4.40;;;;;;;30.53;29.69;99395.12;5550558;32;34278;-58
2022/08/15 14:08:37;;;;;;;6.60;4.07;;;;;;;30.66;28.20;99393.16;5552542;32;34413;-58
2022/08/15 14:12:00;;;;;;;4.72;3.47;;;;;;;30.79;26.73;99382.91;5551069;32;33306;-58
2022/08/15 14:15:03;;;;;;;12.40;5.00;;;;;;;30.97;26.39;99384.37;5558644;32;33622;-58
2022/08/15 14:18:08;;;;;;;10.95;5.18;;;;;;;30.99;29.13;99391.00;5564751;32;33252;-58
2022/08/15 14:21:30;;;;;;;6.90;4.70;;;;;;;31.00;30.31;99398.09;5560302;32;33730;-58
2022/08/15 14:24:33;;;;;;;6.20;4.62;;;;;;;30.80;29.94;99403.84;5562660;32;34009;-58
2022/08/15 14:27:55;;;;;;;6.62;4.60;;;;;;;30.66;30.63;99399.50;5553798;32;33332;-58
